sensor_id;sensor_type;location;lat;lon;timestamp;P1;durP1;ratioP1;P2;durP2;ratioP2
18142;SDS011;9197;50.930;3.140;2022-12-18T00:02:15;63.43;;;30.20;;
18142;SDS011;9197;50.930;3.140;2022-12-18T00:04:42;58.73;;;31.63;;
18142;SDS011;9197;50.930;3.140;2022-12-18T00:07:11;69.93;;;31.97;;
18142;SDS011;9197;50.930;3.140;2022-12-18T00:09:38;72.10;;;32.33;;
18142;SDS011;9197;50.930;3.140;2022-12-18T00:12:06;68.10;;;32.73;;
18142;SDS011;9197;50.930;3.140;2022-12-18T00:14:33;69.40;;;32.93;;
18142;SDS011;9197;50.930;3.140;2022-12-18T00:17:00;69.00;;;31.67;;
18142;SDS011;9197;50.930;3.140;2022-12-18T00:19:27;67.77;;;33.67;;
18142;SDS011;9197;50.930;3.140;2022-12-18T00:21:55;80.37;;;35.33;;
18142;SDS011;9197;50.930;3.140;2022-12-18T00:24:24;72.13;;;32.00;;
18142;SDS011;9197;50.930;3.140;2022-12-18T00:26:51;60.07;;;30.50;;
18142;SDS011;9197;50.930;3.140;2022-12-18T00:29:18;75.60;;;32.87;;
18142;SDS011;9197;50.930;3.140;2022-12-18T00:31:46;66.63;;;31.90;;
18142;SDS011;9197;50.930;3.140;2022-12-18T00:34:13;73.67;;;30.53;;
18142;SDS011;9197;50.930;3.140;2022-12-18T00:36:40;66.30;;;33.13;;
18142;SDS011;9197;50.930;3.140;2022-12-18T00:39:08;64.80;;;31.23;;
18142;SDS011;9197;50.930;3.140;2022-12-18T00:41:38;68.67;;;32.77;;
18142;SDS011;9197;50.930;3.140;2022-12-18T00:44:22;82.73;;;32.53;;
18142;SDS011;9197;50.930;3.140;2022-12-18T00:46:50;56.50;;;25.90;;
18142;SDS011;9197;50.930;3.140;2022-12-18T00:49:18;65.37;;;32.70;;
18142;SDS011;9197;50.930;3.140;2022-12-18T00:51:45;70.97;;;33.47;;
18142;SDS011;9197;50.930;3.140;2022-12-18T00:54:12;75.43;;;34.43;;
18142;SDS011;9197;50.930;3.140;2022-12-18T00:56:41;70.77;;;30.43;;
18142;SDS011;9197;50.930;3.140;2022-12-18T00:59:08;75.60;;;34.00;;
18142;SDS011;9197;50.930;3.140;2022-12-18T01:01:35;74.73;;;33.73;;
18142;SDS011;9197;50.930;3.140;2022-12-18T01:04:02;78.90;;;35.77;;
18142;SDS011;9197;50.930;3.140;2022-12-18T01:06:30;72.20;;;34.60;;
18142;SDS011;9197;50.930;3.140;2022-12-18T01:08:57;80.87;;;36.80;;
18142;SDS011;9197;50.930;3.140;2022-12-18T01:11:24;68.97;;;33.90;;
18142;SDS011;9197;50.930;3.140;2022-12-18T01:13:53;75.10;;;34.83;;
18142;SDS011;9197;50.930;3.140;2022-12-18T01:16:20;69.87;;;33.77;;
18142;SDS011;9197;50.930;3.140;2022-12-18T01:18:50;69.40;;;32.90;;
18142;SDS011;9197;50.930;3.140;2022-12-18T01:21:17;66.47;;;32.83;;
18142;SDS011;9197;50.930;3.140;2022-12-18T01:23:45;69.53;;;33.73;;
18142;SDS011;9197;50.930;3.140;2022-12-18T01:26:13;67.43;;;34.17;;
18142;SDS011;9197;50.930;3.140;2022-12-18T01:28:40;72.67;;;33.90;;
18142;SDS011;9197;50.930;3.140;2022-12-18T01:31:11;71.33;;;31.13;;
18142;SDS011;9197;50.930;3.140;2022-12-18T01:33:38;69.77;;;31.97;;
18142;SDS011;9197;50.930;3.140;2022-12-18T01:36:05;62.80;;;28.70;;
18142;SDS011;9197;50.930;3.140;2022-12-18T01:38:32;65.27;;;30.47;;
18142;SDS011;9197;50.930;3.140;2022-12-18T01:41:00;71.57;;;33.10;;
18142;SDS011;9197;50.930;3.140;2022-12-18T01:43:44;70.37;;;32.83;;
18142;SDS011;9197;50.930;3.140;2022-12-18T01:46:13;48.63;;;23.87;;
18142;SDS011;9197;50.930;3.140;2022-12-18T01:48:40;65.17;;;30.70;;
18142;SDS011;9197;50.930;3.140;2022-12-18T01:51:08;64.47;;;29.43;;
18142;SDS011;9197;50.930;3.140;2022-12-18T01:53:36;67.63;;;33.50;;
18142;SDS011;9197;50.930;3.140;2022-12-18T01:56:04;67.20;;;29.70;;
18142;SDS011;9197;50.930;3.140;2022-12-18T01:58:33;74.77;;;32.43;;
18142;SDS011;9197;50.930;3.140;2022-12-18T02:01:02;73.43;;;32.37;;
18142;SDS011;9197;50.930;3.140;2022-12-18T02:03:31;55.57;;;30.60;;
18142;SDS011;9197;50.930;3.140;2022-12-18T02:05:59;74.23;;;31.90;;
18142;SDS011;9197;50.930;3.140;2022-12-18T02:08:29;68.67;;;32.77;;
18142;SDS011;9197;50.930;3.140;2022-12-18T02:11:02;58.30;;;31.17;;
18142;SDS011;9197;50.930;3.140;2022-12-18T02:13:32;69.90;;;31.63;;
18142;SDS011;9197;50.930;3.140;2022-12-18T02:16:04;61.27;;;30.23;;
18142;SDS011;9197;50.930;3.140;2022-12-18T02:18:37;68.03;;;32.83;;
18142;SDS011;9197;50.930;3.140;2022-12-18T02:21:08;62.73;;;31.30;;
18142;SDS011;9197;50.930;3.140;2022-12-18T02:23:47;61.50;;;28.90;;
18142;SDS011;9197;50.930;3.140;2022-12-18T02:26:20;61.07;;;30.50;;
18142;SDS011;9197;50.930;3.140;2022-12-18T02:28:51;66.17;;;32.07;;
18142;SDS011;9197;50.930;3.140;2022-12-18T02:31:21;58.00;;;28.50;;
18142;SDS011;9197;50.930;3.140;2022-12-18T02:33:51;55.57;;;30.03;;
18142;SDS011;9197;50.930;3.140;2022-12-18T02:36:20;57.67;;;29.73;;
18142;SDS011;9197;50.930;3.140;2022-12-18T02:38:48;54.13;;;29.50;;
18142;SDS011;9197;50.930;3.140;2022-12-18T02:41:17;58.40;;;30.43;;
18142;SDS011;9197;50.930;3.140;2022-12-18T02:43:49;61.60;;;33.43;;
18142;SDS011;9197;50.930;3.140;2022-12-18T02:46:27;46.60;;;27.63;;
18142;SDS011;9197;50.930;3.140;2022-12-18T02:48:56;50.40;;;26.57;;
18142;SDS011;9197;50.930;3.140;2022-12-18T02:51:27;44.10;;;28.53;;
18142;SDS011;9197;50.930;3.140;2022-12-18T02:53:57;54.63;;;30.17;;
18142;SDS011;9197;50.930;3.140;2022-12-18T02:56:27;62.40;;;29.73;;
18142;SDS011;9197;50.930;3.140;2022-12-18T02:58:58;58.87;;;30.00;;
18142;SDS011;9197;50.930;3.140;2022-12-18T03:01:28;52.67;;;29.87;;
18142;SDS011;9197;50.930;3.140;2022-12-18T03:03:58;45.13;;;26.60;;
18142;SDS011;9197;50.930;3.140;2022-12-18T03:06:26;45.40;;;26.73;;
18142;SDS011;9197;50.930;3.140;2022-12-18T03:08:56;47.07;;;26.73;;
18142;SDS011;9197;50.930;3.140;2022-12-18T03:11:25;61.47;;;27.80;;
18142;SDS011;9197;50.930;3.140;2022-12-18T03:14:09;46.83;;;23.17;;
18142;SDS011;9197;50.930;3.140;2022-12-18T03:16:36;49.97;;;27.43;;
18142;SDS011;9197;50.930;3.140;2022-12-18T03:19:05;46.63;;;27.07;;
18142;SDS011;9197;50.930;3.140;2022-12-18T03:21:33;44.00;;;26.07;;
18142;SDS011;9197;50.930;3.140;2022-12-18T03:24:04;46.83;;;26.23;;
18142;SDS011;9197;50.930;3.140;2022-12-18T03:26:32;45.43;;;27.07;;
18142;SDS011;9197;50.930;3.140;2022-12-18T03:29:02;46.53;;;25.90;;
18142;SDS011;9197;50.930;3.140;2022-12-18T03:31:31;39.13;;;24.90;;
18142;SDS011;9197;50.930;3.140;2022-12-18T03:33:59;51.17;;;26.17;;
18142;SDS011;9197;50.930;3.140;2022-12-18T03:36:28;50.20;;;26.83;;
18142;SDS011;9197;50.930;3.140;2022-12-18T03:38:55;45.37;;;25.73;;
18142;SDS011;9197;50.930;3.140;2022-12-18T03:41:24;38.20;;;23.23;;
18142;SDS011;9197;50.930;3.140;2022-12-18T03:43:52;49.40;;;26.07;;
18142;SDS011;9197;50.930;3.140;2022-12-18T03:46:24;56.80;;;27.43;;
18142;SDS011;9197;50.930;3.140;2022-12-18T03:48:55;44.73;;;24.07;;
18142;SDS011;9197;50.930;3.140;2022-12-18T03:51:24;40.20;;;24.13;;
18142;SDS011;9197;50.930;3.140;2022-12-18T03:53:53;45.57;;;24.13;;
18142;SDS011;9197;50.930;3.140;2022-12-18T03:56:22;44.43;;;25.33;;
18142;SDS011;9197;50.930;3.140;2022-12-18T03:58:51;44.77;;;24.20;;
18142;SDS011;9197;50.930;3.140;2022-12-18T04:01:20;53.03;;;26.60;;
18142;SDS011;9197;50.930;3.140;2022-12-18T04:03:49;46.87;;;24.37;;
18142;SDS011;9197;50.930;3.140;2022-12-18T04:06:18;37.97;;;23.53;;
18142;SDS011;9197;50.930;3.140;2022-12-18T04:08:45;42.20;;;23.83;;
18142;SDS011;9197;50.930;3.140;2022-12-18T04:11:13;37.47;;;21.10;;
18142;SDS011;9197;50.930;3.140;2022-12-18T04:13:41;38.17;;;23.20;;
18142;SDS011;9197;50.930;3.140;2022-12-18T04:16:09;40.63;;;23.77;;
18142;SDS011;9197;50.930;3.140;2022-12-18T04:18:36;44.10;;;24.73;;
18142;SDS011;9197;50.930;3.140;2022-12-18T04:21:04;43.37;;;23.87;;
18142;SDS011;9197;50.930;3.140;2022-12-18T04:23:32;37.07;;;23.10;;
18142;SDS011;9197;50.930;3.140;2022-12-18T04:26:00;48.20;;;22.97;;
18142;SDS011;9197;50.930;3.140;2022-12-18T04:28:27;40.73;;;21.70;;
18142;SDS011;9197;50.930;3.140;2022-12-18T04:30:54;43.40;;;22.50;;
18142;SDS011;9197;50.930;3.140;2022-12-18T04:33:21;37.60;;;23.33;;
18142;SDS011;9197;50.930;3.140;2022-12-18T04:35:48;40.30;;;23.63;;
18142;SDS011;9197;50.930;3.140;2022-12-18T04:38:15;42.50;;;25.57;;
18142;SDS011;9197;50.930;3.140;2022-12-18T04:40:44;44.13;;;23.50;;
18142;SDS011;9197;50.930;3.140;2022-12-18T04:43:11;42.30;;;22.47;;
18142;SDS011;9197;50.930;3.140;2022-12-18T04:45:38;40.40;;;23.20;;
18142;SDS011;9197;50.930;3.140;2022-12-18T04:48:05;37.50;;;22.23;;
18142;SDS011;9197;50.930;3.140;2022-12-18T04:50:32;32.67;;;21.70;;
18142;SDS011;9197;50.930;3.140;2022-12-18T04:53:00;38.80;;;24.50;;
18142;SDS011;9197;50.930;3.140;2022-12-18T04:55:27;39.37;;;21.37;;
18142;SDS011;9197;50.930;3.140;2022-12-18T04:57:55;38.03;;;21.33;;
18142;SDS011;9197;50.930;3.140;2022-12-18T05:00:22;62.47;;;34.60;;
18142;SDS011;9197;50.930;3.140;2022-12-18T05:02:50;50.93;;;25.17;;
18142;SDS011;9197;50.930;3.140;2022-12-18T05:05:17;45.40;;;25.97;;
18142;SDS011;9197;50.930;3.140;2022-12-18T05:07:44;41.33;;;22.80;;
18142;SDS011;9197;50.930;3.140;2022-12-18T05:10:11;42.23;;;24.50;;
18142;SDS011;9197;50.930;3.140;2022-12-18T05:12:38;52.27;;;33.37;;
18142;SDS011;9197;50.930;3.140;2022-12-18T05:15:24;59.90;;;38.90;;
18142;SDS011;9197;50.930;3.140;2022-12-18T05:17:53;37.70;;;23.50;;
18142;SDS011;9197;50.930;3.140;2022-12-18T05:20:20;42.33;;;24.27;;
18142;SDS011;9197;50.930;3.140;2022-12-18T05:22:47;35.77;;;22.97;;
18142;SDS011;9197;50.930;3.140;2022-12-18T05:25:14;38.40;;;20.57;;
18142;SDS011;9197;50.930;3.140;2022-12-18T05:27:41;44.23;;;23.07;;
18142;SDS011;9197;50.930;3.140;2022-12-18T05:30:09;33.20;;;20.83;;
18142;SDS011;9197;50.930;3.140;2022-12-18T05:32:37;34.23;;;21.23;;
18142;SDS011;9197;50.930;3.140;2022-12-18T05:35:05;37.87;;;21.70;;
18142;SDS011;9197;50.930;3.140;2022-12-18T05:37:33;34.83;;;19.90;;
18142;SDS011;9197;50.930;3.140;2022-12-18T05:40:00;34.10;;;21.40;;
18142;SDS011;9197;50.930;3.140;2022-12-18T05:42:27;41.07;;;23.80;;
18142;SDS011;9197;50.930;3.140;2022-12-18T05:44:54;39.33;;;22.47;;
18142;SDS011;9197;50.930;3.140;2022-12-18T05:47:22;41.17;;;20.23;;
18142;SDS011;9197;50.930;3.140;2022-12-18T05:49:50;33.03;;;20.83;;
18142;SDS011;9197;50.930;3.140;2022-12-18T05:52:17;32.10;;;19.73;;
18142;SDS011;9197;50.930;3.140;2022-12-18T05:54:45;32.47;;;20.73;;
18142;SDS011;9197;50.930;3.140;2022-12-18T05:57:12;29.90;;;19.70;;
18142;SDS011;9197;50.930;3.140;2022-12-18T05:59:39;32.40;;;20.17;;
18142;SDS011;9197;50.930;3.140;2022-12-18T06:02:06;37.03;;;20.73;;
18142;SDS011;9197;50.930;3.140;2022-12-18T06:04:33;29.50;;;20.00;;
18142;SDS011;9197;50.930;3.140;2022-12-18T06:07:02;38.70;;;20.13;;
18142;SDS011;9197;50.930;3.140;2022-12-18T06:09:29;33.60;;;19.70;;
18142;SDS011;9197;50.930;3.140;2022-12-18T06:11:57;29.33;;;18.00;;
18142;SDS011;9197;50.930;3.140;2022-12-18T06:14:24;30.60;;;17.47;;
18142;SDS011;9197;50.930;3.140;2022-12-18T06:16:51;36.97;;;22.03;;
18142;SDS011;9197;50.930;3.140;2022-12-18T06:19:18;34.57;;;21.43;;
18142;SDS011;9197;50.930;3.140;2022-12-18T06:21:46;31.30;;;19.10;;
18142;SDS011;9197;50.930;3.140;2022-12-18T06:24:15;29.20;;;17.97;;
18142;SDS011;9197;50.930;3.140;2022-12-18T06:26:42;31.60;;;19.83;;
18142;SDS011;9197;50.930;3.140;2022-12-18T06:29:10;27.50;;;20.30;;
18142;SDS011;9197;50.930;3.140;2022-12-18T06:31:37;24.57;;;14.80;;
18142;SDS011;9197;50.930;3.140;2022-12-18T06:34:04;33.23;;;22.03;;
18142;SDS011;9197;50.930;3.140;2022-12-18T06:36:31;28.47;;;17.80;;
18142;SDS011;9197;50.930;3.140;2022-12-18T06:38:58;26.90;;;16.13;;
18142;SDS011;9197;50.930;3.140;2022-12-18T06:41:27;28.07;;;15.30;;
18142;SDS011;9197;50.930;3.140;2022-12-18T06:43:54;27.20;;;15.93;;
18142;SDS011;9197;50.930;3.140;2022-12-18T06:46:21;25.40;;;15.67;;
18142;SDS011;9197;50.930;3.140;2022-12-18T06:48:49;27.10;;;16.53;;
18142;SDS011;9197;50.930;3.140;2022-12-18T06:51:19;21.90;;;14.00;;
18142;SDS011;9197;50.930;3.140;2022-12-18T06:53:47;24.40;;;13.70;;
18142;SDS011;9197;50.930;3.140;2022-12-18T06:56:14;20.50;;;13.90;;
18142;SDS011;9197;50.930;3.140;2022-12-18T06:58:43;21.40;;;14.07;;
18142;SDS011;9197;50.930;3.140;2022-12-18T07:01:11;22.87;;;14.83;;
18142;SDS011;9197;50.930;3.140;2022-12-18T07:03:38;20.87;;;13.23;;
18142;SDS011;9197;50.930;3.140;2022-12-18T07:06:06;21.43;;;14.90;;
18142;SDS011;9197;50.930;3.140;2022-12-18T07:08:33;28.70;;;16.27;;
18142;SDS011;9197;50.930;3.140;2022-12-18T07:11:02;23.23;;;13.67;;
18142;SDS011;9197;50.930;3.140;2022-12-18T07:13:30;21.67;;;13.20;;
18142;SDS011;9197;50.930;3.140;2022-12-18T07:16:04;22.77;;;12.57;;
18142;SDS011;9197;50.930;3.140;2022-12-18T07:18:31;18.37;;;11.10;;
18142;SDS011;9197;50.930;3.140;2022-12-18T07:21:02;24.87;;;13.37;;
18142;SDS011;9197;50.930;3.140;2022-12-18T07:23:29;16.20;;;12.50;;
18142;SDS011;9197;50.930;3.140;2022-12-18T07:26:03;22.77;;;12.53;;
18142;SDS011;9197;50.930;3.140;2022-12-18T07:28:30;19.40;;;12.63;;
18142;SDS011;9197;50.930;3.140;2022-12-18T07:30:58;17.47;;;10.50;;
18142;SDS011;9197;50.930;3.140;2022-12-18T07:33:26;17.97;;;11.30;;
18142;SDS011;9197;50.930;3.140;2022-12-18T07:35:53;16.67;;;10.60;;
18142;SDS011;9197;50.930;3.140;2022-12-18T07:38:21;20.80;;;10.63;;
18142;SDS011;9197;50.930;3.140;2022-12-18T07:40:48;20.13;;;11.47;;
18142;SDS011;9197;50.930;3.140;2022-12-18T07:43:15;17.07;;;9.70;;
18142;SDS011;9197;50.930;3.140;2022-12-18T07:45:42;15.13;;;10.67;;
18142;SDS011;9197;50.930;3.140;2022-12-18T07:48:10;17.80;;;10.33;;
18142;SDS011;9197;50.930;3.140;2022-12-18T07:50:38;12.90;;;9.83;;
18142;SDS011;9197;50.930;3.140;2022-12-18T07:53:06;15.40;;;9.07;;
18142;SDS011;9197;50.930;3.140;2022-12-18T07:55:33;13.60;;;9.33;;
18142;SDS011;9197;50.930;3.140;2022-12-18T07:58:01;16.63;;;10.67;;
18142;SDS011;9197;50.930;3.140;2022-12-18T08:00:28;17.77;;;10.67;;
18142;SDS011;9197;50.930;3.140;2022-12-18T08:02:55;17.63;;;10.03;;
18142;SDS011;9197;50.930;3.140;2022-12-18T08:05:22;17.23;;;11.03;;
18142;SDS011;9197;50.930;3.140;2022-12-18T08:07:51;19.03;;;11.93;;
18142;SDS011;9197;50.930;3.140;2022-12-18T08:10:19;21.60;;;12.20;;
18142;SDS011;9197;50.930;3.140;2022-12-18T08:12:48;20.13;;;12.47;;
18142;SDS011;9197;50.930;3.140;2022-12-18T08:15:16;19.10;;;12.53;;
18142;SDS011;9197;50.930;3.140;2022-12-18T08:17:43;20.73;;;11.83;;
18142;SDS011;9197;50.930;3.140;2022-12-18T08:20:10;16.33;;;11.33;;
18142;SDS011;9197;50.930;3.140;2022-12-18T08:22:39;20.93;;;12.33;;
18142;SDS011;9197;50.930;3.140;2022-12-18T08:25:08;23.90;;;11.77;;
18142;SDS011;9197;50.930;3.140;2022-12-18T08:27:35;20.73;;;12.67;;
18142;SDS011;9197;50.930;3.140;2022-12-18T08:30:02;15.83;;;11.87;;
18142;SDS011;9197;50.930;3.140;2022-12-18T08:32:30;22.20;;;13.93;;
18142;SDS011;9197;50.930;3.140;2022-12-18T08:34:57;17.73;;;12.50;;
18142;SDS011;9197;50.930;3.140;2022-12-18T08:37:25;21.13;;;12.17;;
18142;SDS011;9197;50.930;3.140;2022-12-18T08:39:52;18.20;;;12.33;;
18142;SDS011;9197;50.930;3.140;2022-12-18T08:42:20;16.37;;;10.57;;
18142;SDS011;9197;50.930;3.140;2022-12-18T08:45:05;16.30;;;11.33;;
18142;SDS011;9197;50.930;3.140;2022-12-18T08:47:33;17.07;;;13.00;;
18142;SDS011;9197;50.930;3.140;2022-12-18T08:50:00;19.77;;;11.87;;
18142;SDS011;9197;50.930;3.140;2022-12-18T08:52:27;17.43;;;11.47;;
18142;SDS011;9197;50.930;3.140;2022-12-18T08:54:54;19.87;;;12.67;;
18142;SDS011;9197;50.930;3.140;2022-12-18T08:57:23;23.77;;;13.40;;
18142;SDS011;9197;50.930;3.140;2022-12-18T08:59:50;16.23;;;10.63;;
18142;SDS011;9197;50.930;3.140;2022-12-18T09:02:17;19.67;;;11.50;;
18142;SDS011;9197;50.930;3.140;2022-12-18T09:04:46;17.97;;;11.30;;
18142;SDS011;9197;50.930;3.140;2022-12-18T09:07:13;19.73;;;12.67;;
18142;SDS011;9197;50.930;3.140;2022-12-18T09:09:41;17.00;;;12.57;;
18142;SDS011;9197;50.930;3.140;2022-12-18T09:12:08;18.93;;;12.60;;
18142;SDS011;9197;50.930;3.140;2022-12-18T09:14:36;18.10;;;12.90;;
18142;SDS011;9197;50.930;3.140;2022-12-18T09:17:03;19.27;;;12.07;;
18142;SDS011;9197;50.930;3.140;2022-12-18T09:19:31;16.50;;;11.03;;
18142;SDS011;9197;50.930;3.140;2022-12-18T09:21:58;21.13;;;12.63;;
18142;SDS011;9197;50.930;3.140;2022-12-18T09:24:25;19.07;;;11.43;;
18142;SDS011;9197;50.930;3.140;2022-12-18T09:26:52;16.57;;;12.37;;
18142;SDS011;9197;50.930;3.140;2022-12-18T09:29:20;20.20;;;11.83;;
18142;SDS011;9197;50.930;3.140;2022-12-18T09:31:49;19.07;;;12.20;;
18142;SDS011;9197;50.930;3.140;2022-12-18T09:34:16;20.27;;;12.73;;
18142;SDS011;9197;50.930;3.140;2022-12-18T09:36:45;20.73;;;12.87;;
18142;SDS011;9197;50.930;3.140;2022-12-18T09:39:13;21.87;;;13.07;;
18142;SDS011;9197;50.930;3.140;2022-12-18T09:41:44;17.63;;;12.90;;
18142;SDS011;9197;50.930;3.140;2022-12-18T09:44:17;15.03;;;10.93;;
18142;SDS011;9197;50.930;3.140;2022-12-18T09:46:46;21.37;;;13.07;;
18142;SDS011;9197;50.930;3.140;2022-12-18T09:49:16;19.67;;;12.90;;
18142;SDS011;9197;50.930;3.140;2022-12-18T09:51:44;19.00;;;12.67;;
18142;SDS011;9197;50.930;3.140;2022-12-18T09:54:12;18.83;;;11.77;;
18142;SDS011;9197;50.930;3.140;2022-12-18T09:56:41;18.43;;;12.90;;
18142;SDS011;9197;50.930;3.140;2022-12-18T09:59:14;20.03;;;12.97;;
18142;SDS011;9197;50.930;3.140;2022-12-18T10:01:44;21.40;;;13.77;;
18142;SDS011;9197;50.930;3.140;2022-12-18T10:04:12;20.30;;;11.67;;
18142;SDS011;9197;50.930;3.140;2022-12-18T10:06:41;18.30;;;13.17;;
18142;SDS011;9197;50.930;3.140;2022-12-18T10:09:11;23.83;;;14.10;;
18142;SDS011;9197;50.930;3.140;2022-12-18T10:11:41;19.67;;;12.97;;
18142;SDS011;9197;50.930;3.140;2022-12-18T10:14:13;22.40;;;15.70;;
18142;SDS011;9197;50.930;3.140;2022-12-18T10:16:44;25.00;;;15.53;;
18142;SDS011;9197;50.930;3.140;2022-12-18T10:19:18;17.80;;;13.10;;
18142;SDS011;9197;50.930;3.140;2022-12-18T10:21:51;24.63;;;16.00;;
18142;SDS011;9197;50.930;3.140;2022-12-18T10:24:24;29.00;;;17.10;;
18142;SDS011;9197;50.930;3.140;2022-12-18T10:26:53;20.20;;;14.83;;
18142;SDS011;9197;50.930;3.140;2022-12-18T10:29:22;25.57;;;16.43;;
18142;SDS011;9197;50.930;3.140;2022-12-18T10:31:51;18.97;;;12.33;;
18142;SDS011;9197;50.930;3.140;2022-12-18T10:34:18;26.77;;;15.27;;
18142;SDS011;9197;50.930;3.140;2022-12-18T10:36:46;24.00;;;15.47;;
18142;SDS011;9197;50.930;3.140;2022-12-18T10:39:17;24.13;;;17.47;;
18142;SDS011;9197;50.930;3.140;2022-12-18T10:41:44;19.50;;;14.47;;
18142;SDS011;9197;50.930;3.140;2022-12-18T10:44:14;20.80;;;15.10;;
18142;SDS011;9197;50.930;3.140;2022-12-18T10:46:42;22.40;;;15.37;;
18142;SDS011;9197;50.930;3.140;2022-12-18T10:49:18;20.83;;;13.67;;
18142;SDS011;9197;50.930;3.140;2022-12-18T10:51:46;23.83;;;16.23;;
18142;SDS011;9197;50.930;3.140;2022-12-18T10:54:14;22.80;;;15.67;;
18142;SDS011;9197;50.930;3.140;2022-12-18T10:56:44;19.43;;;13.70;;
18142;SDS011;9197;50.930;3.140;2022-12-18T10:59:13;28.23;;;18.80;;
18142;SDS011;9197;50.930;3.140;2022-12-18T11:01:48;22.23;;;14.53;;
18142;SDS011;9197;50.930;3.140;2022-12-18T11:04:17;25.43;;;17.10;;
18142;SDS011;9197;50.930;3.140;2022-12-18T11:06:54;26.10;;;15.43;;
18142;SDS011;9197;50.930;3.140;2022-12-18T11:09:22;29.10;;;17.17;;
18142;SDS011;9197;50.930;3.140;2022-12-18T11:11:52;24.10;;;16.53;;
18142;SDS011;9197;50.930;3.140;2022-12-18T11:14:21;19.27;;;12.97;;
18142;SDS011;9197;50.930;3.140;2022-12-18T11:16:50;21.67;;;14.57;;
18142;SDS011;9197;50.930;3.140;2022-12-18T11:19:21;24.13;;;16.63;;
18142;SDS011;9197;50.930;3.140;2022-12-18T11:21:50;16.93;;;13.23;;
18142;SDS011;9197;50.930;3.140;2022-12-18T11:24:19;20.33;;;15.10;;
18142;SDS011;9197;50.930;3.140;2022-12-18T11:26:47;30.53;;;18.20;;
18142;SDS011;9197;50.930;3.140;2022-12-18T11:29:17;23.43;;;16.43;;
18142;SDS011;9197;50.930;3.140;2022-12-18T11:31:44;25.97;;;17.87;;
18142;SDS011;9197;50.930;3.140;2022-12-18T11:34:12;25.03;;;16.50;;
18142;SDS011;9197;50.930;3.140;2022-12-18T11:36:44;28.97;;;16.00;;
18142;SDS011;9197;50.930;3.140;2022-12-18T11:39:12;24.00;;;18.90;;
18142;SDS011;9197;50.930;3.140;2022-12-18T11:41:45;26.80;;;16.97;;
18142;SDS011;9197;50.930;3.140;2022-12-18T11:44:35;28.47;;;18.23;;
18142;SDS011;9197;50.930;3.140;2022-12-18T11:47:03;21.03;;;13.60;;
18142;SDS011;9197;50.930;3.140;2022-12-18T11:49:35;25.07;;;17.03;;
18142;SDS011;9197;50.930;3.140;2022-12-18T11:52:07;31.13;;;19.07;;
18142;SDS011;9197;50.930;3.140;2022-12-18T11:54:36;25.17;;;15.57;;
18142;SDS011;9197;50.930;3.140;2022-12-18T11:57:05;31.03;;;19.63;;
18142;SDS011;9197;50.930;3.140;2022-12-18T11:59:39;32.80;;;21.00;;
18142;SDS011;9197;50.930;3.140;2022-12-18T12:02:15;26.77;;;18.93;;
18142;SDS011;9197;50.930;3.140;2022-12-18T12:04:57;26.73;;;17.33;;
18142;SDS011;9197;50.930;3.140;2022-12-18T12:07:35;31.47;;;20.33;;
18142;SDS011;9197;50.930;3.140;2022-12-18T12:10:07;26.53;;;17.53;;
18142;SDS011;9197;50.930;3.140;2022-12-18T12:12:37;26.40;;;18.77;;
18142;SDS011;9197;50.930;3.140;2022-12-18T12:15:16;38.03;;;23.03;;
18142;SDS011;9197;50.930;3.140;2022-12-18T12:17:45;27.03;;;18.97;;
18142;SDS011;9197;50.930;3.140;2022-12-18T12:20:18;31.80;;;21.30;;
18142;SDS011;9197;50.930;3.140;2022-12-18T12:22:48;35.77;;;21.77;;
18142;SDS011;9197;50.930;3.140;2022-12-18T12:25:24;32.53;;;20.60;;
18142;SDS011;9197;50.930;3.140;2022-12-18T12:27:56;27.93;;;20.37;;
18142;SDS011;9197;50.930;3.140;2022-12-18T12:30:29;33.37;;;21.30;;
18142;SDS011;9197;50.930;3.140;2022-12-18T12:33:07;37.90;;;27.50;;
18142;SDS011;9197;50.930;3.140;2022-12-18T12:35:38;33.73;;;22.20;;
18142;SDS011;9197;50.930;3.140;2022-12-18T12:38:10;24.23;;;16.57;;
18142;SDS011;9197;50.930;3.140;2022-12-18T12:40:40;44.37;;;22.83;;
18142;SDS011;9197;50.930;3.140;2022-12-18T12:43:12;33.70;;;21.73;;
18142;SDS011;9197;50.930;3.140;2022-12-18T12:45:44;37.03;;;21.87;;
18142;SDS011;9197;50.930;3.140;2022-12-18T12:48:16;32.23;;;20.37;;
18142;SDS011;9197;50.930;3.140;2022-12-18T12:50:44;38.63;;;24.67;;
18142;SDS011;9197;50.930;3.140;2022-12-18T12:53:14;38.50;;;21.07;;
18142;SDS011;9197;50.930;3.140;2022-12-18T12:55:44;38.47;;;24.27;;
18142;SDS011;9197;50.930;3.140;2022-12-18T12:58:13;34.43;;;19.33;;
18142;SDS011;9197;50.930;3.140;2022-12-18T13:00:44;46.43;;;27.53;;
18142;SDS011;9197;50.930;3.140;2022-12-18T13:03:22;42.03;;;24.00;;
18142;SDS011;9197;50.930;3.140;2022-12-18T13:05:53;35.03;;;22.67;;
18142;SDS011;9197;50.930;3.140;2022-12-18T13:08:22;28.17;;;18.87;;
18142;SDS011;9197;50.930;3.140;2022-12-18T13:10:50;40.83;;;25.33;;
18142;SDS011;9197;50.930;3.140;2022-12-18T13:13:47;36.47;;;21.40;;
18142;SDS011;9197;50.930;3.140;2022-12-18T13:16:16;33.07;;;20.63;;
18142;SDS011;9197;50.930;3.140;2022-12-18T13:18:48;31.00;;;17.50;;
18142;SDS011;9197;50.930;3.140;2022-12-18T13:21:18;32.13;;;21.97;;
18142;SDS011;9197;50.930;3.140;2022-12-18T13:23:48;33.20;;;21.70;;
18142;SDS011;9197;50.930;3.140;2022-12-18T13:26:28;33.53;;;19.93;;
18142;SDS011;9197;50.930;3.140;2022-12-18T13:28:57;29.97;;;20.23;;
18142;SDS011;9197;50.930;3.140;2022-12-18T13:34:23;31.37;;;20.10;;
18142;SDS011;9197;50.930;3.140;2022-12-18T13:36:51;34.87;;;22.17;;
18142;SDS011;9197;50.930;3.140;2022-12-18T13:39:23;37.70;;;21.73;;
18142;SDS011;9197;50.930;3.140;2022-12-18T13:41:51;41.00;;;24.17;;
18142;SDS011;9197;50.930;3.140;2022-12-18T13:44:28;29.03;;;17.77;;
18142;SDS011;9197;50.930;3.140;2022-12-18T13:46:58;32.37;;;20.83;;
18142;SDS011;9197;50.930;3.140;2022-12-18T13:49:28;23.60;;;17.60;;
18142;SDS011;9197;50.930;3.140;2022-12-18T13:51:58;31.80;;;21.03;;
18142;SDS011;9197;50.930;3.140;2022-12-18T13:54:28;23.90;;;14.10;;
18142;SDS011;9197;50.930;3.140;2022-12-18T13:56:57;30.40;;;17.97;;
18142;SDS011;9197;50.930;3.140;2022-12-18T13:59:24;29.13;;;19.57;;
18142;SDS011;9197;50.930;3.140;2022-12-18T14:01:53;26.37;;;17.50;;
18142;SDS011;9197;50.930;3.140;2022-12-18T14:04:22;34.83;;;20.10;;
18142;SDS011;9197;50.930;3.140;2022-12-18T14:06:51;31.77;;;17.93;;
18142;SDS011;9197;50.930;3.140;2022-12-18T14:09:20;27.80;;;17.23;;
18142;SDS011;9197;50.930;3.140;2022-12-18T14:11:48;30.47;;;18.90;;
18142;SDS011;9197;50.930;3.140;2022-12-18T14:14:16;30.90;;;18.63;;
18142;SDS011;9197;50.930;3.140;2022-12-18T14:16:44;35.13;;;21.20;;
18142;SDS011;9197;50.930;3.140;2022-12-18T14:19:13;37.03;;;21.40;;
18142;SDS011;9197;50.930;3.140;2022-12-18T14:21:44;29.00;;;17.27;;
18142;SDS011;9197;50.930;3.140;2022-12-18T14:24:14;31.60;;;19.27;;
18142;SDS011;9197;50.930;3.140;2022-12-18T14:26:42;40.40;;;24.23;;
18142;SDS011;9197;50.930;3.140;2022-12-18T14:29:20;113.90;;;51.83;;
18142;SDS011;9197;50.930;3.140;2022-12-18T14:32:04;38.30;;;23.40;;
18142;SDS011;9197;50.930;3.140;2022-12-18T14:34:31;58.83;;;40.47;;
18142;SDS011;9197;50.930;3.140;2022-12-18T14:36:58;41.87;;;26.33;;
18142;SDS011;9197;50.930;3.140;2022-12-18T14:39:27;46.87;;;31.20;;
18142;SDS011;9197;50.930;3.140;2022-12-18T14:41:54;35.20;;;21.37;;
18142;SDS011;9197;50.930;3.140;2022-12-18T14:44:21;32.43;;;19.53;;
18142;SDS011;9197;50.930;3.140;2022-12-18T14:46:49;35.43;;;21.27;;
18142;SDS011;9197;50.930;3.140;2022-12-18T14:49:21;39.63;;;22.30;;
18142;SDS011;9197;50.930;3.140;2022-12-18T14:51:50;28.90;;;17.73;;